Lima, Perú

2:03 AM PET en Octubre 24, 2014 (GMT -0500)
Jorge Chavez International | Change Station
CLOSE
Current Station
Aeropuerto
Location: Lima,
Altura: 43 ft
Estaciones meteorológicas cercanas

Alt 43 ft 12.01 °S, 77.12 °W | Updated 3 minutes ago

Overcast
Nublado
63 ° F
Sensación térmica 63 ° F
N
12
Viento Variable Viento desde SSE

Hoy
Alta -- | Baja -- ° F
--% Posibilidad de precipitaciones
Ayer
Alta -- | Baja -- ° F
Precip. -- pul
5:38 AM 6:06 PM
Luna nueva, 0% visible
Presión 29.95 pul
Visibilidad 6.2 Millas
Nubes Nublado 1600 ft
Punto de rocío 59 ° F
Humedad 88%
Precipitaciones 0.00 pul
Espesor de la nieve No disponible.
UV 0 de una escala de 12
Polen No disponible.
Calidad del aire No disponible.
Flu Activity No disponible.
METAR SPIM 240700Z 16010KT 9999 OVC016 17/15 Q1014 NOSIG RMK PP000

More Conditions Fewer Conditions

Presión 29.95 pul
Visibilidad 6.2 Millas
Nubes Nublado 1600 ft
Punto de rocío 59 ° F
Humedad 88%
Precipitaciones 0.00 pul
Espesor de la nieve No disponible.
UV 0 de una escala de 12
Polen No disponible.
Calidad del aire No disponible.
Flu Activity No disponible.
METAR SPIM 240700Z 16010KT 9999 OVC016 17/15 Q1014 NOSIG RMK PP000

More Conditions Fewer Conditions

10-Day Weather Forecast

Almanac

Astronomía

Oct. 24, 2014 Salida Puesta
Hora real 5:38 AM PET 6:06 PM PET
Crepúsculo civil 5:17 AM PET 6:28 PM PET
Crepúsculo náutico 4:52 AM PET 6:53 PM PET
Crepúsculo astronómico 4:26 AM PET 7:18 PM PET
Luna 6:09 AM PET 6:57 PM PET
Horas de luz 13h 10m
Horas de luz
12h 27m
Tomorrow will be 0m 38s longer.
Luna nueva, 0% of the Moon is Illuminated
Hoy
Luna nueva
Oct 30
Cuarto creciente
Nov 6
Luna llena
Nov 14
Cuarto menguante
Nov 22
Nueva

Extremos de ayer

Máximos del país Bajas del país

Community

WunderPhotos

Upload Photos

1,764,510 ¡fotos cargadas!

WunderBlogs® & News

Nearby

Calidad del aire

Not available.

Grosos de nieve

Not available.

Actividad de terremotos

Ciudad Distance Mag. Tiempo y dato
No hay informes recientes de la actividad sísmica.
Magnitud mínima muestra es 2,5.

Temperaturas de aguas costeras

Lugar Temperatura
Sin partes meteorológicos de las estaciones

Estaciones meteorológicas cercanas